createdAt,value
2023-04-18T00:00:55.840Z,8.40
2023-04-18T00:03:23.726Z,8.30
2023-04-18T00:05:50.943Z,8.30
2023-04-18T00:08:17.996Z,8.30
2023-04-18T00:10:45.096Z,8.30
2023-04-18T00:13:12.468Z,8.20
2023-04-18T00:15:41.714Z,8.20
2023-04-18T00:18:08.957Z,8.20
2023-04-18T00:20:38.949Z,8.20
2023-04-18T00:23:06.325Z,8.10
2023-04-18T00:25:33.640Z,8.10
2023-04-18T00:28:00.726Z,8.10
2023-04-18T00:30:28.203Z,8.10
2023-04-18T00:32:56.651Z,8.10
2023-04-18T00:35:25.187Z,8.00
2023-04-18T00:37:52.346Z,8.00
2023-04-18T00:40:19.473Z,8.10
2023-04-18T00:42:46.513Z,8.00
2023-04-18T00:45:14.518Z,8.00
2023-04-18T00:47:41.667Z,8.00
2023-04-18T00:50:11.042Z,7.90
2023-04-18T00:52:38.270Z,7.90
2023-04-18T00:55:07.832Z,7.90
2023-04-18T00:57:36.140Z,7.90
2023-04-18T01:00:10.413Z,7.90
2023-04-18T01:02:40.066Z,7.80
2023-04-18T01:05:08.733Z,7.80
2023-04-18T01:07:40.740Z,7.80
2023-04-18T01:10:09.498Z,7.70
2023-04-18T01:12:37.694Z,7.60
2023-04-18T01:15:06.165Z,7.60
2023-04-18T01:17:35.522Z,7.60
2023-04-18T01:20:06.284Z,7.50
2023-04-18T01:22:33.906Z,7.50
2023-04-18T01:25:01.029Z,7.50
2023-04-18T01:27:28.132Z,7.50
2023-04-18T01:29:55.328Z,7.50
2023-04-18T01:32:22.676Z,7.40
2023-04-18T01:34:49.961Z,7.40
2023-04-18T01:37:17.656Z,7.40
2023-04-18T01:39:45.156Z,7.40
2023-04-18T01:42:12.241Z,7.30
2023-04-18T01:44:39.311Z,7.30
2023-04-18T01:47:06.494Z,7.20
2023-04-18T01:49:33.640Z,7.20
2023-04-18T01:52:00.727Z,7.20
2023-04-18T01:54:27.838Z,7.10
2023-04-18T01:56:54.890Z,7.20
2023-04-18T01:59:22.474Z,7.10
2023-04-18T02:01:49.603Z,7.10
2023-04-18T02:04:18.044Z,7.10
2023-04-18T02:06:46.838Z,7.00
2023-04-18T02:09:13.889Z,7.00
2023-04-18T02:11:43.190Z,7.00
2023-04-18T02:14:10.484Z,7.00
2023-04-18T02:16:38.789Z,7.00
2023-04-18T02:19:06.368Z,7.00
2023-04-18T02:21:34.472Z,6.90
2023-04-18T02:24:01.605Z,6.90
2023-04-18T02:26:28.680Z,6.90
2023-04-18T02:28:58.712Z,6.90
2023-04-18T02:31:25.964Z,6.90
2023-04-18T02:33:53.188Z,6.90
2023-04-18T02:36:22.084Z,6.80
2023-04-18T02:38:49.136Z,6.80
2023-04-18T02:41:19.480Z,6.80
2023-04-18T02:43:47.297Z,6.70
2023-04-18T02:46:16.369Z,6.70
2023-04-18T02:48:46.424Z,6.70
2023-04-18T02:51:14.884Z,6.70
2023-04-18T02:53:42.886Z,6.60
2023-04-18T02:56:10.620Z,6.60
2023-04-18T02:58:56.216Z,6.60
2023-04-18T03:01:52.456Z,6.50
2023-04-18T03:04:21.932Z,6.50
2023-04-18T03:06:57.893Z,6.40
2023-04-18T03:09:26.255Z,6.40
2023-04-18T03:11:58.582Z,6.40
2023-04-18T03:14:28.091Z,6.40
2023-04-18T03:16:56.200Z,6.40
2023-04-18T03:19:28.423Z,6.30
2023-04-18T03:21:56.731Z,6.30
2023-04-18T03:24:23.876Z,6.30
2023-04-18T03:26:53.826Z,6.30
2023-04-18T03:29:24.817Z,6.20
2023-04-18T03:31:51.939Z,6.20
2023-04-18T03:34:19.411Z,6.10
2023-04-18T03:36:48.196Z,6.10
2023-04-18T03:39:15.741Z,6.10
2023-04-18T03:41:43.028Z,6.10
2023-04-18T03:44:10.713Z,6.00
2023-04-18T03:46:40.322Z,6.00
2023-04-18T03:49:09.116Z,6.00
2023-04-18T03:51:50.068Z,5.90
2023-04-18T03:54:18.782Z,5.90
2023-04-18T03:56:46.278Z,5.90
2023-04-18T03:59:15.652Z,5.90
2023-04-18T04:01:46.480Z,5.90
2023-04-18T04:04:15.439Z,5.80
2023-04-18T04:06:43.212Z,5.80
2023-04-18T04:09:10.344Z,5.80
2023-04-18T04:11:38.664Z,5.70
2023-04-18T04:14:08.410Z,5.70
2023-04-18T04:16:40.492Z,5.70
2023-04-18T04:19:08.636Z,5.60
2023-04-18T04:21:42.095Z,5.60
2023-04-18T04:24:13.819Z,5.60
2023-04-18T04:26:45.142Z,5.50
2023-04-18T04:29:16.381Z,5.50
2023-04-18T04:31:45.374Z,5.50
2023-04-18T04:34:16.763Z,5.50
2023-04-18T04:36:44.325Z,5.50
2023-04-18T04:39:14.831Z,5.50
2023-04-18T04:42:05.535Z,5.50
2023-04-18T04:44:43.796Z,5.40
2023-04-18T04:47:11.032Z,5.40
2023-04-18T04:49:39.606Z,5.40
2023-04-18T04:52:07.023Z,5.30
2023-04-18T04:54:36.420Z,5.40
2023-04-18T04:57:05.982Z,5.30
2023-04-18T04:59:33.064Z,5.30
2023-04-18T05:02:00.886Z,5.30
2023-04-18T05:04:28.211Z,5.30
2023-04-18T05:06:57.642Z,5.30
2023-04-18T05:09:24.711Z,5.30
2023-04-18T05:11:51.853Z,5.30
2023-04-18T05:14:20.733Z,5.30
2023-04-18T05:16:47.856Z,5.30
2023-04-18T05:19:18.381Z,5.30
2023-04-18T05:21:45.608Z,5.30
2023-04-18T05:24:12.951Z,5.30
2023-04-18T05:26:40.624Z,5.30
2023-04-18T05:29:07.729Z,5.30
2023-04-18T05:31:35.327Z,5.30
2023-04-18T05:34:07.339Z,5.30
2023-04-18T05:36:52.711Z,5.40
2023-04-18T05:39:28.191Z,5.40
2023-04-18T05:41:59.621Z,5.40
2023-04-18T05:44:27.680Z,5.40
2023-04-18T05:46:56.239Z,5.40
2023-04-18T05:49:25.787Z,5.50
2023-04-18T05:52:06.231Z,5.40
2023-04-18T05:54:33.598Z,5.40
2023-04-18T05:57:02.174Z,5.40
2023-04-18T05:59:31.288Z,5.40
2023-04-18T06:02:03.228Z,5.40
2023-04-18T06:04:30.902Z,5.40
2023-04-18T06:06:58.475Z,5.50
2023-04-18T06:09:26.048Z,5.50
2023-04-18T06:11:53.442Z,5.60
2023-04-18T06:14:21.019Z,5.60
2023-04-18T06:16:48.660Z,5.60
2023-04-18T06:19:15.958Z,5.60
2023-04-18T06:21:43.187Z,5.60
2023-04-18T06:24:10.624Z,5.70
2023-04-18T06:26:38.031Z,5.60
2023-04-18T06:29:05.355Z,5.70
2023-04-18T06:31:32.503Z,5.70
2023-04-18T06:33:59.779Z,5.70
2023-04-18T06:36:27.576Z,5.80
2023-04-18T06:38:55.677Z,5.80
2023-04-18T06:41:25.851Z,5.90
2023-04-18T06:44:03.775Z,5.90
2023-04-18T06:46:34.027Z,5.90
2023-04-18T06:49:04.196Z,6.00
2023-04-18T06:51:31.742Z,6.10
2023-04-18T06:54:01.748Z,6.10
2023-04-18T06:56:29.683Z,6.20
2023-04-18T06:58:56.906Z,6.20
2023-04-18T07:01:24.102Z,6.20
2023-04-18T07:03:51.289Z,6.30
2023-04-18T07:06:18.819Z,6.30
2023-04-18T07:08:46.056Z,6.40
2023-04-18T07:11:18.578Z,6.40
2023-04-18T07:13:47.374Z,6.50
2023-04-18T07:16:14.607Z,6.50
2023-04-18T07:18:41.749Z,6.60
2023-04-18T07:21:08.827Z,6.70
2023-04-18T07:23:36.626Z,6.80
2023-04-18T07:26:05.780Z,6.80
2023-04-18T07:28:33.658Z,6.90
2023-04-18T07:31:03.108Z,6.90
2023-04-18T07:33:35.066Z,6.90
2023-04-18T07:36:05.611Z,6.90
2023-04-18T07:38:35.313Z,7.00
2023-04-18T07:41:03.697Z,7.10
2023-04-18T07:43:31.518Z,7.20
2023-04-18T07:45:58.826Z,7.30
2023-04-18T07:48:25.941Z,7.40
2023-04-18T07:50:54.206Z,7.50
2023-04-18T07:53:21.277Z,7.50
2023-04-18T07:55:48.559Z,7.40
2023-04-18T07:58:15.857Z,7.50
2023-04-18T08:00:44.780Z,7.50
2023-04-18T08:03:13.492Z,7.60
2023-04-18T08:05:42.906Z,7.70
2023-04-18T08:08:12.119Z,7.70
2023-04-18T08:10:41.500Z,7.90
2023-04-18T08:13:08.622Z,8.10
2023-04-18T08:15:35.835Z,8.20
2023-04-18T08:18:03.120Z,8.10
2023-04-18T08:20:30.452Z,8.00
2023-04-18T08:23:07.611Z,8.10
2023-04-18T08:25:36.449Z,8.40
2023-04-18T08:28:04.112Z,8.60
2023-04-18T08:30:31.784Z,8.40
2023-04-18T08:33:00.912Z,8.40
2023-04-18T08:35:28.350Z,8.40
2023-04-18T08:37:55.575Z,8.50
2023-04-18T08:40:23.082Z,8.50
2023-04-18T08:42:53.280Z,8.50
2023-04-18T08:45:22.904Z,8.50
2023-04-18T08:47:57.228Z,8.70
2023-04-18T08:50:24.554Z,8.90
2023-04-18T08:52:58.462Z,8.90
2023-04-18T08:55:28.206Z,8.90
2023-04-18T08:57:58.283Z,9.00
2023-04-18T09:00:27.662Z,9.10
2023-04-18T09:02:59.413Z,9.30
2023-04-18T09:05:35.741Z,9.20
2023-04-18T09:08:24.131Z,9.30
2023-04-18T09:10:54.006Z,9.30
2023-04-18T09:13:39.739Z,9.40
2023-04-18T09:16:07.281Z,9.40
2023-04-18T09:18:37.117Z,9.40
2023-04-18T09:21:22.512Z,9.50
2023-04-18T09:24:21.219Z,9.60
2023-04-18T09:26:51.976Z,9.70
2023-04-18T09:29:22.584Z,9.70
2023-04-18T09:32:01.531Z,9.80
2023-04-18T09:34:34.441Z,9.80
2023-04-18T09:37:11.297Z,9.90
2023-04-18T09:39:47.672Z,10.00
2023-04-18T09:42:20.138Z,10.00
2023-04-18T09:45:07.788Z,10.20
2023-04-18T09:47:36.843Z,10.40
2023-04-18T09:50:11.986Z,10.40
2023-04-18T09:52:43.578Z,10.40
2023-04-18T09:55:14.855Z,10.40
2023-04-18T09:57:49.490Z,10.50
2023-04-18T10:00:27.414Z,10.70
2023-04-18T10:03:05.827Z,10.90
2023-04-18T10:05:40.753Z,11.20
2023-04-18T10:08:11.431Z,11.50
2023-04-18T10:10:42.555Z,11.50
2023-04-18T10:13:14.215Z,11.40
2023-04-18T10:15:54.955Z,11.20
2023-04-18T10:18:31.043Z,11.10
2023-04-18T10:21:12.209Z,11.10
2023-04-18T10:23:50.874Z,11.20
2023-04-18T10:26:19.436Z,11.40
2023-04-18T10:28:59.563Z,11.70
2023-04-18T10:31:46.942Z,11.90
2023-04-18T10:34:20.822Z,12.40
2023-04-18T10:37:05.717Z,12.70
2023-04-18T10:40:17.845Z,13.10
2023-04-18T10:42:48.425Z,12.80
2023-04-18T10:45:24.857Z,12.20
2023-04-18T10:48:25.830Z,11.90
2023-04-18T10:51:21.910Z,11.70
2023-04-18T10:54:02.898Z,12.30
2023-04-18T10:56:40.660Z,12.70
2023-04-18T10:59:25.935Z,12.40
2023-04-18T11:02:16.266Z,12.10
2023-04-18T11:04:51.453Z,12.00
2023-04-18T11:07:53.297Z,12.10
2023-04-18T11:10:30.650Z,12.10
2023-04-18T11:13:06.841Z,12.00
2023-04-18T11:15:46.014Z,12.00
2023-04-18T11:18:26.087Z,11.90
2023-04-18T11:21:30.718Z,11.90
2023-04-18T11:24:00.367Z,11.90
2023-04-18T11:26:57.077Z,12.00
2023-04-18T11:29:34.061Z,12.00
2023-04-18T11:32:16.216Z,12.10
2023-04-18T11:35:14.985Z,12.00
2023-04-18T11:38:28.793Z,12.10
2023-04-18T11:41:07.050Z,12.20
2023-04-18T11:44:01.466Z,12.30
2023-04-18T11:46:43.541Z,12.30
2023-04-18T11:49:35.445Z,12.30
2023-04-18T11:55:31.561Z,12.50
2023-04-18T11:58:28.470Z,12.70
2023-04-18T12:01:19.729Z,12.70
2023-04-18T12:04:08.492Z,12.90
2023-04-18T12:07:06.971Z,12.90
2023-04-18T12:09:43.082Z,12.70
2023-04-18T12:12:14.773Z,12.50
2023-04-18T12:15:00.980Z,12.50
2023-04-18T12:17:38.642Z,12.80
2023-04-18T12:20:38.770Z,12.50
2023-04-18T12:23:13.802Z,12.50
2023-04-18T12:25:54.521Z,12.80
2023-04-18T12:28:27.197Z,12.90
2023-04-18T12:31:40.616Z,12.90
2023-04-18T12:34:19.582Z,12.90
2023-04-18T12:37:10.102Z,12.90
2023-04-18T12:39:51.619Z,13.40
2023-04-18T12:42:44.512Z,13.70
2023-04-18T12:45:58.433Z,13.70
2023-04-18T12:48:34.344Z,13.20
2023-04-18T12:54:39.366Z,12.70
2023-04-18T12:57:24.367Z,12.60
2023-04-18T13:00:01.706Z,13.00
2023-04-18T13:02:37.512Z,13.30
2023-04-18T13:05:20.945Z,13.70
2023-04-18T13:08:29.922Z,13.90
2023-04-18T13:11:04.637Z,14.20
2023-04-18T13:13:51.493Z,14.30
2023-04-18T13:16:36.444Z,13.90
2023-04-18T13:19:18.690Z,13.50
2023-04-18T13:22:12.026Z,13.30
2023-04-18T13:25:18.405Z,13.40
2023-04-18T13:28:11.974Z,13.70
2023-04-18T13:31:48.228Z,13.50
2023-04-18T13:33:53.739Z,13.80
2023-04-18T13:36:42.221Z,14.10
2023-04-18T13:39:24.953Z,14.00
2023-04-18T13:42:17.354Z,13.90
2023-04-18T13:46:15.447Z,14.00
2023-04-18T13:49:13.248Z,14.30
2023-04-18T13:51:50.147Z,14.40
2023-04-18T13:54:51.233Z,14.60
2023-04-18T13:57:57.133Z,14.90
2023-04-18T14:01:29.486Z,14.80
2023-04-18T14:04:15.932Z,14.70
2023-04-18T14:07:06.730Z,14.90
2023-04-18T14:10:29.469Z,15.10
2023-04-18T14:16:36.201Z,14.60
2023-04-18T14:19:56.044Z,14.30
2023-04-18T14:25:56.917Z,14.20
2023-04-18T14:28:43.908Z,14.00
2023-04-18T14:31:29.718Z,14.10
2023-04-18T14:34:42.613Z,14.70
2023-04-18T14:37:45.991Z,15.20
2023-04-18T14:40:29.883Z,15.10
2023-04-18T14:43:09.732Z,14.60
2023-04-18T14:46:07.418Z,14.90
2023-04-18T14:48:52.766Z,15.20
2023-04-18T14:51:28.521Z,15.70
2023-04-18T14:54:40.100Z,16.40
2023-04-18T14:57:39.282Z,16.50
2023-04-18T15:01:13.154Z,16.40
2023-04-18T15:04:26.917Z,15.20
2023-04-18T15:07:09.703Z,14.30
2023-04-18T15:10:31.867Z,14.90
2023-04-18T15:13:14.470Z,16.40
2023-04-18T15:16:06.384Z,16.10
2023-04-18T15:18:46.010Z,15.90
2023-04-18T15:24:36.923Z,15.60
2023-04-18T15:27:14.168Z,16.30
2023-04-18T15:30:37.655Z,17.10
2023-04-18T15:33:30.500Z,17.20
2023-04-18T15:36:20.473Z,16.90
2023-04-18T15:38:59.732Z,16.80
2023-04-18T15:41:54.237Z,17.30
2023-04-18T15:44:32.235Z,18.40
2023-04-18T15:47:04.718Z,18.60
2023-04-18T15:49:41.461Z,17.80
2023-04-18T15:52:21.465Z,17.10
2023-04-18T15:55:56.372Z,17.10
2023-04-18T15:58:03.250Z,17.30
2023-04-18T16:00:35.994Z,17.10
2023-04-18T16:03:04.935Z,17.10
2023-04-18T16:05:34.454Z,17.10
2023-04-18T16:08:06.173Z,16.70
2023-04-18T16:10:41.934Z,16.50
2023-04-18T16:13:11.719Z,17.10
2023-04-18T16:15:41.677Z,17.10
2023-04-18T16:18:11.462Z,17.30
2023-04-18T16:20:38.621Z,17.20
2023-04-18T16:23:05.959Z,17.40
2023-04-18T16:25:33.733Z,16.70
2023-04-18T16:28:01.412Z,15.60
2023-04-18T16:30:29.254Z,14.80
2023-04-18T16:32:57.409Z,14.40
2023-04-18T16:35:26.321Z,14.30
2023-04-18T16:37:56.487Z,14.20
2023-04-18T16:40:28.813Z,14.30
2023-04-18T16:43:00.534Z,14.30
2023-04-18T16:45:29.708Z,14.30
2023-04-18T16:48:01.851Z,14.30
2023-04-18T16:50:29.308Z,14.20
2023-04-18T16:52:56.499Z,14.10
2023-04-18T16:55:23.852Z,14.10
2023-04-18T16:57:51.182Z,14.20
2023-04-18T17:00:19.029Z,14.20
2023-04-18T17:02:47.095Z,14.10
2023-04-18T17:05:14.479Z,14.00
2023-04-18T17:07:41.515Z,13.90
2023-04-18T17:10:10.144Z,13.80
2023-04-18T17:12:37.616Z,13.50
2023-04-18T17:15:05.364Z,13.30
2023-04-18T17:17:32.653Z,13.40
2023-04-18T17:19:59.716Z,13.40
2023-04-18T17:22:27.004Z,13.30
2023-04-18T17:24:54.113Z,13.30
2023-04-18T17:27:21.161Z,13.20
2023-04-18T17:29:48.252Z,13.20
2023-04-18T17:32:15.592Z,13.20
2023-04-18T17:34:42.617Z,13.10
2023-04-18T17:37:11.063Z,13.00
2023-04-18T17:39:38.983Z,13.00
2023-04-18T17:42:06.118Z,13.00
2023-04-18T17:44:33.269Z,12.90
2023-04-18T17:47:01.953Z,12.80
2023-04-18T17:49:34.517Z,12.70
2023-04-18T17:52:02.534Z,12.60
2023-04-18T17:54:30.028Z,12.60
2023-04-18T17:56:57.904Z,12.50
2023-04-18T17:59:25.067Z,12.60
2023-04-18T18:01:52.208Z,12.50
2023-04-18T18:04:20.278Z,12.40
2023-04-18T18:06:57.975Z,12.40
2023-04-18T18:09:25.199Z,12.30
2023-04-18T18:11:54.682Z,12.30
2023-04-18T18:14:23.325Z,12.20
2023-04-18T18:16:50.600Z,12.10
2023-04-18T18:19:17.735Z,12.10
2023-04-18T18:21:44.840Z,12.10
2023-04-18T18:24:11.934Z,12.00
2023-04-18T18:26:39.008Z,12.00
2023-04-18T18:29:09.412Z,11.90
2023-04-18T18:31:37.118Z,11.90
2023-04-18T18:34:05.051Z,11.80
2023-04-18T18:36:32.211Z,11.80
2023-04-18T18:38:59.249Z,11.70
2023-04-18T18:41:26.313Z,11.70
2023-04-18T18:43:53.453Z,11.70
2023-04-18T18:46:20.676Z,11.60
2023-04-18T18:48:49.133Z,11.60
2023-04-18T18:51:19.412Z,11.50
2023-04-18T18:53:46.972Z,11.40
2023-04-18T18:56:14.632Z,11.50
2023-04-18T18:58:43.728Z,11.40
2023-04-18T19:01:13.865Z,11.40
2023-04-18T19:03:41.255Z,11.30
2023-04-18T19:06:08.540Z,11.20
2023-04-18T19:08:35.836Z,11.20
2023-04-18T19:11:02.910Z,11.20
2023-04-18T19:13:30.044Z,11.20
2023-04-18T19:15:57.333Z,11.10
2023-04-18T19:18:24.512Z,11.10
2023-04-18T19:20:51.561Z,11.10
2023-04-18T19:23:19.376Z,11.00
2023-04-18T19:25:46.995Z,11.00
2023-04-18T19:28:14.453Z,10.90
2023-04-18T19:30:42.658Z,10.90
2023-04-18T19:33:10.158Z,10.90
2023-04-18T19:35:38.029Z,10.90
2023-04-18T19:38:05.297Z,10.80
2023-04-18T19:40:32.402Z,10.80
2023-04-18T19:42:59.474Z,10.80
2023-04-18T19:45:26.771Z,10.80
2023-04-18T19:47:53.903Z,10.70
2023-04-18T19:50:21.110Z,10.60
2023-04-18T19:52:48.181Z,10.60
2023-04-18T19:55:15.396Z,10.60
2023-04-18T19:57:43.657Z,10.60
2023-04-18T20:00:13.332Z,10.60
2023-04-18T20:02:42.488Z,10.60
2023-04-18T20:05:10.304Z,10.60
2023-04-18T20:07:37.591Z,10.50
2023-04-18T20:10:05.447Z,10.50
2023-04-18T20:12:32.565Z,10.40
2023-04-18T20:14:59.802Z,10.40
2023-04-18T20:17:27.738Z,10.40
2023-04-18T20:19:57.020Z,10.30
2023-04-18T20:22:27.192Z,10.30
2023-04-18T20:24:57.127Z,10.30
2023-04-18T20:27:24.430Z,10.30
2023-04-18T20:29:51.711Z,10.20
2023-04-18T20:32:18.917Z,10.20
2023-04-18T20:34:46.703Z,10.20
2023-04-18T20:37:15.939Z,10.20
2023-04-18T20:39:43.000Z,10.20
2023-04-18T20:42:14.280Z,10.10
2023-04-18T20:44:46.888Z,10.10
2023-04-18T20:47:15.779Z,10.00
2023-04-18T20:49:43.339Z,10.00
2023-04-18T20:52:10.696Z,10.00
2023-04-18T20:54:37.944Z,10.00
2023-04-18T20:57:04.992Z,10.00
2023-04-18T20:59:32.122Z,9.90
2023-04-18T21:01:59.300Z,9.80
2023-04-18T21:04:27.244Z,9.80
2023-04-18T21:06:54.592Z,9.80
2023-04-18T21:09:21.760Z,9.70
2023-04-18T21:11:48.842Z,9.70
2023-04-18T21:14:17.167Z,9.70
2023-04-18T21:16:44.867Z,9.70
2023-04-18T21:19:12.174Z,9.70
2023-04-18T21:21:39.258Z,9.60
2023-04-18T21:24:06.836Z,9.60
2023-04-18T21:26:33.966Z,9.50
2023-04-18T21:29:04.789Z,9.50
2023-04-18T21:31:34.669Z,9.50
2023-04-18T21:34:04.652Z,9.50
2023-04-18T21:36:32.730Z,9.40
2023-04-18T21:39:01.348Z,9.40
2023-04-18T21:41:28.656Z,9.40
2023-04-18T21:43:55.751Z,9.50
2023-04-18T21:46:22.953Z,9.40
2023-04-18T21:48:50.322Z,9.40
2023-04-18T21:51:17.965Z,9.40
2023-04-18T21:53:45.064Z,9.40
2023-04-18T21:56:12.303Z,9.30
2023-04-18T21:58:39.626Z,9.30
2023-04-18T22:01:06.866Z,9.30
2023-04-18T22:03:34.620Z,9.30
2023-04-18T22:06:02.099Z,9.30
2023-04-18T22:08:29.554Z,9.30
2023-04-18T22:10:59.030Z,9.20
2023-04-18T22:13:30.133Z,9.20
2023-04-18T22:15:58.242Z,9.20
2023-04-18T22:18:25.715Z,9.10
2023-04-18T22:20:53.946Z,9.10
2023-04-18T22:23:21.045Z,9.10
2023-04-18T22:25:48.575Z,9.20
2023-04-18T22:28:15.976Z,9.10
2023-04-18T22:30:43.126Z,9.10
2023-04-18T22:33:10.236Z,9.00
2023-04-18T22:35:37.417Z,9.00
2023-04-18T22:38:04.594Z,9.00
2023-04-18T22:40:31.844Z,8.90
2023-04-18T22:42:58.891Z,8.90
2023-04-18T22:45:25.955Z,8.80
2023-04-18T22:47:53.373Z,8.90
2023-04-18T22:50:20.844Z,8.90
2023-04-18T22:52:48.143Z,8.90
2023-04-18T22:55:16.668Z,8.90
2023-04-18T22:57:43.904Z,8.90
2023-04-18T23:00:12.105Z,8.90
2023-04-18T23:02:39.273Z,8.90
2023-04-18T23:05:07.994Z,8.80
2023-04-18T23:07:35.253Z,8.80
2023-04-18T23:10:06.421Z,8.70
2023-04-18T23:12:33.754Z,8.70
2023-04-18T23:15:00.942Z,8.70
2023-04-18T23:17:28.015Z,8.70
2023-04-18T23:19:55.075Z,8.60
2023-04-18T23:22:24.131Z,8.60
2023-04-18T23:24:51.413Z,8.60
2023-04-18T23:27:19.453Z,8.60
2023-04-18T23:29:49.894Z,8.50
2023-04-18T23:32:16.999Z,8.50
2023-04-18T23:34:46.094Z,8.50
2023-04-18T23:37:13.172Z,8.50
2023-04-18T23:39:40.206Z,8.50
2023-04-18T23:42:07.439Z,8.40
2023-04-18T23:44:34.510Z,8.40
2023-04-18T23:47:01.624Z,8.40
2023-04-18T23:49:28.700Z,8.40
2023-04-18T23:51:55.807Z,8.30
2023-04-18T23:54:23.002Z,8.30
2023-04-18T23:56:50.039Z,8.30
2023-04-18T23:59:17.125Z,8.20
